createdAt,value
2022-07-29T00:01:46.835Z,2.30
2022-07-29T00:04:16.862Z,2.47
2022-07-29T00:06:46.700Z,2.17
2022-07-29T00:09:15.927Z,2.40
2022-07-29T00:11:45.467Z,2.27
2022-07-29T00:14:14.990Z,2.00
2022-07-29T00:16:44.569Z,1.90
2022-07-29T00:19:13.946Z,2.75
2022-07-29T00:21:43.177Z,2.40
2022-07-29T00:24:13.170Z,2.27
2022-07-29T00:26:42.604Z,2.78
2022-07-29T00:29:33.740Z,3.35
2022-07-29T00:32:01.673Z,2.72
2022-07-29T00:34:43.539Z,2.13
2022-07-29T00:37:13.057Z,2.30
2022-07-29T00:39:42.292Z,2.38
2022-07-29T00:42:11.773Z,2.60
2022-07-29T00:44:45.157Z,2.60
2022-07-29T00:47:15.043Z,2.05
2022-07-29T00:49:45.246Z,2.23
2022-07-29T00:52:16.932Z,2.83
2022-07-29T00:54:46.866Z,2.53
2022-07-29T00:57:16.906Z,3.58
2022-07-29T00:59:46.135Z,2.45
2022-07-29T01:02:15.374Z,2.70
2022-07-29T01:04:44.929Z,2.95
2022-07-29T01:07:14.346Z,2.65
2022-07-29T01:09:46.608Z,3.00
2022-07-29T01:12:19.959Z,3.40
2022-07-29T01:14:50.358Z,2.97
2022-07-29T01:17:28.177Z,2.65
2022-07-29T01:20:16.287Z,2.78
2022-07-29T01:23:00.711Z,2.88
2022-07-29T01:25:46.180Z,3.05
2022-07-29T01:28:39.277Z,2.63
2022-07-29T01:31:11.249Z,2.47
2022-07-29T01:33:52.320Z,2.75
2022-07-29T01:36:27.670Z,2.20
2022-07-29T01:39:20.927Z,2.53
2022-07-29T01:42:17.061Z,2.00
2022-07-29T01:45:19.473Z,4.43
2022-07-29T01:47:52.324Z,2.47
2022-07-29T01:50:23.046Z,2.30
2022-07-29T01:53:00.957Z,2.50
2022-07-29T01:55:35.115Z,2.50
2022-07-29T01:58:04.925Z,2.28
2022-07-29T02:00:35.214Z,2.85
2022-07-29T02:03:06.720Z,2.53
2022-07-29T02:05:36.866Z,2.50
2022-07-29T02:08:09.493Z,2.57
2022-07-29T02:10:40.474Z,2.97
2022-07-29T02:13:10.674Z,2.78
2022-07-29T02:15:40.497Z,2.30
2022-07-29T02:18:13.688Z,2.65
2022-07-29T02:20:43.769Z,2.93
2022-07-29T02:23:14.273Z,3.22
2022-07-29T02:25:45.123Z,2.58
2022-07-29T02:28:15.603Z,2.13
2022-07-29T02:30:46.005Z,2.45
2022-07-29T02:33:17.346Z,2.30
2022-07-29T02:35:50.314Z,2.50
2022-07-29T02:38:33.000Z,2.53
2022-07-29T02:41:04.235Z,2.42
2022-07-29T02:43:34.384Z,2.72
2022-07-29T02:46:04.571Z,3.07
2022-07-29T02:48:45.675Z,3.15
2022-07-29T02:51:43.708Z,2.63
2022-07-29T02:54:11.727Z,2.90
2022-07-29T02:56:42.402Z,3.38
2022-07-29T02:59:14.360Z,3.07
2022-07-29T03:01:46.729Z,3.65
2022-07-29T03:04:17.363Z,2.80
2022-07-29T03:06:47.042Z,3.00
2022-07-29T03:09:17.131Z,3.15
2022-07-29T03:11:50.584Z,2.73
2022-07-29T03:14:24.093Z,3.10
2022-07-29T03:16:53.887Z,3.28
2022-07-29T03:19:23.890Z,2.80
2022-07-29T03:21:53.257Z,3.15
2022-07-29T03:24:37.244Z,3.03
2022-07-29T03:27:07.613Z,3.60
2022-07-29T03:29:37.132Z,3.22
2022-07-29T03:32:09.058Z,3.05
2022-07-29T03:34:39.645Z,3.45
2022-07-29T03:37:09.898Z,3.10
2022-07-29T03:39:43.290Z,2.97
2022-07-29T03:42:15.076Z,4.25
2022-07-29T03:44:46.001Z,2.85
2022-07-29T03:47:17.411Z,3.58
2022-07-29T03:49:50.446Z,2.70
2022-07-29T03:52:20.310Z,2.70
2022-07-29T03:54:50.083Z,3.15
2022-07-29T03:57:20.098Z,3.75
2022-07-29T03:59:49.577Z,3.28
2022-07-29T04:02:22.415Z,2.70
2022-07-29T04:04:54.064Z,2.50
2022-07-29T04:07:23.343Z,2.83
2022-07-29T04:09:52.602Z,2.58
2022-07-29T04:12:22.080Z,3.40
2022-07-29T04:14:51.537Z,3.00
2022-07-29T04:17:20.795Z,3.05
2022-07-29T04:19:50.076Z,3.17
2022-07-29T04:22:19.278Z,2.90
2022-07-29T04:24:48.569Z,2.90
2022-07-29T04:27:17.819Z,3.60
2022-07-29T04:29:56.302Z,2.97
2022-07-29T04:32:27.265Z,4.72
2022-07-29T04:34:56.615Z,3.47
2022-07-29T04:37:26.607Z,3.72
2022-07-29T04:39:55.885Z,2.70
2022-07-29T04:42:26.732Z,2.95
2022-07-29T04:44:57.155Z,3.47
2022-07-29T04:47:26.361Z,3.10
2022-07-29T04:49:56.294Z,2.97
2022-07-29T04:52:26.130Z,3.60
2022-07-29T04:54:55.362Z,2.67
2022-07-29T04:57:24.683Z,2.67
2022-07-29T04:59:53.987Z,2.90
2022-07-29T05:02:23.283Z,3.47
2022-07-29T05:04:52.630Z,2.67
2022-07-29T05:07:21.899Z,3.53
2022-07-29T05:09:51.179Z,3.00
2022-07-29T05:12:20.389Z,2.85
2022-07-29T05:14:49.659Z,2.80
2022-07-29T05:17:18.941Z,2.87
2022-07-29T05:19:48.436Z,2.50
2022-07-29T05:22:17.649Z,2.60
2022-07-29T05:24:46.886Z,2.40
2022-07-29T05:27:16.425Z,2.65
2022-07-29T05:29:45.898Z,2.53
2022-07-29T05:32:16.345Z,2.80
2022-07-29T05:34:51.063Z,2.72
2022-07-29T05:37:20.858Z,1.70
2022-07-29T05:39:56.741Z,2.85
2022-07-29T05:42:30.271Z,5.10
2022-07-29T05:44:59.556Z,2.00
2022-07-29T05:47:29.262Z,2.70
2022-07-29T05:49:58.522Z,2.30
2022-07-29T05:52:27.780Z,2.90
2022-07-29T05:54:57.414Z,2.80
2022-07-29T05:57:27.947Z,3.00
2022-07-29T05:59:57.202Z,2.78
2022-07-29T06:02:26.465Z,2.25
2022-07-29T06:04:55.951Z,2.30
2022-07-29T06:07:25.430Z,2.63
2022-07-29T06:09:54.678Z,2.60
2022-07-29T06:12:24.535Z,1.80
2022-07-29T06:14:54.315Z,2.10
2022-07-29T06:17:23.714Z,1.88
2022-07-29T06:19:53.145Z,1.50
2022-07-29T06:22:22.402Z,1.58
2022-07-29T06:24:51.638Z,2.00
2022-07-29T06:27:20.886Z,1.60
2022-07-29T06:29:50.164Z,1.63
2022-07-29T06:32:20.194Z,1.70
2022-07-29T06:34:52.196Z,1.90
2022-07-29T06:37:23.183Z,2.50
2022-07-29T06:40:14.844Z,1.40
2022-07-29T06:42:47.644Z,1.65
2022-07-29T06:45:17.211Z,1.77
2022-07-29T06:47:46.448Z,2.13
2022-07-29T06:50:16.168Z,1.80
2022-07-29T06:52:45.485Z,1.83
2022-07-29T06:55:24.983Z,1.80
2022-07-29T06:57:55.059Z,1.73
2022-07-29T07:00:24.442Z,1.90
2022-07-29T07:02:53.745Z,1.80
2022-07-29T07:05:23.018Z,1.60
2022-07-29T07:07:52.222Z,1.63
2022-07-29T07:10:22.031Z,1.97
2022-07-29T07:12:53.345Z,1.60
2022-07-29T07:15:24.337Z,1.60
2022-07-29T07:18:10.007Z,1.95
2022-07-29T07:20:40.398Z,1.92
2022-07-29T07:23:09.690Z,3.67
2022-07-29T07:25:38.906Z,1.77
2022-07-29T07:28:08.475Z,2.10
2022-07-29T07:30:37.705Z,1.60
2022-07-29T07:33:07.055Z,1.85
2022-07-29T07:35:36.505Z,1.80
2022-07-29T07:38:06.982Z,1.85
2022-07-29T07:40:36.667Z,2.08
2022-07-29T07:43:06.038Z,2.45
2022-07-29T07:45:38.366Z,1.83
2022-07-29T07:48:11.182Z,2.20
2022-07-29T07:50:40.843Z,2.05
2022-07-29T07:53:10.322Z,2.40
2022-07-29T07:56:09.407Z,2.53
2022-07-29T07:58:36.404Z,3.13
2022-07-29T08:01:06.068Z,2.20
2022-07-29T08:03:36.603Z,2.30
2022-07-29T08:06:07.498Z,2.55
2022-07-29T08:08:37.189Z,2.67
2022-07-29T08:11:09.710Z,2.50
2022-07-29T08:13:39.812Z,2.60
2022-07-29T08:16:16.444Z,2.35
2022-07-29T08:18:47.164Z,2.33
2022-07-29T08:21:17.278Z,2.45
2022-07-29T08:24:00.803Z,2.30
2022-07-29T08:26:32.193Z,2.80
2022-07-29T08:29:01.591Z,2.00
2022-07-29T08:31:31.088Z,2.17
2022-07-29T08:34:00.893Z,2.47
2022-07-29T08:36:30.233Z,2.33
2022-07-29T08:38:59.756Z,2.00
2022-07-29T08:41:29.747Z,2.22
2022-07-29T08:43:59.011Z,2.15
2022-07-29T08:46:29.240Z,2.13
2022-07-29T08:48:59.116Z,2.17
2022-07-29T08:51:29.321Z,2.27
2022-07-29T08:53:58.688Z,2.20
2022-07-29T08:56:28.047Z,2.65
2022-07-29T08:58:57.746Z,2.15
2022-07-29T09:01:36.499Z,2.33
2022-07-29T09:04:15.100Z,2.17
2022-07-29T09:06:49.538Z,2.38
2022-07-29T09:09:18.929Z,2.17
2022-07-29T09:11:48.146Z,2.10
2022-07-29T09:14:17.584Z,2.20
2022-07-29T09:16:58.765Z,2.20
2022-07-29T09:19:35.893Z,2.47
2022-07-29T09:22:07.465Z,2.50
2022-07-29T09:24:44.765Z,2.33
2022-07-29T09:27:23.196Z,2.25
2022-07-29T09:30:25.676Z,2.63
2022-07-29T09:33:03.822Z,2.38
2022-07-29T09:35:33.816Z,2.60
2022-07-29T09:38:14.605Z,2.00
2022-07-29T09:40:44.089Z,2.55
2022-07-29T09:43:14.945Z,2.87
2022-07-29T09:45:44.530Z,2.30
2022-07-29T09:48:22.078Z,3.47
2022-07-29T09:50:51.431Z,2.38
2022-07-29T09:53:34.626Z,2.58
2022-07-29T09:56:04.442Z,3.00
2022-07-29T09:58:34.698Z,2.33
2022-07-29T10:01:04.414Z,2.28
2022-07-29T10:03:33.770Z,2.25
2022-07-29T10:06:09.948Z,2.80
2022-07-29T10:08:39.412Z,2.80
2022-07-29T10:11:18.821Z,2.00
2022-07-29T10:13:50.002Z,2.38
2022-07-29T10:16:20.091Z,2.40
2022-07-29T10:18:49.965Z,2.40
2022-07-29T10:21:34.765Z,2.27
2022-07-29T10:24:06.030Z,2.35
2022-07-29T10:26:36.337Z,2.53
2022-07-29T10:29:05.883Z,2.63
2022-07-29T10:31:49.901Z,2.60
2022-07-29T10:34:36.194Z,2.57
2022-07-29T10:37:22.245Z,2.35
2022-07-29T10:40:26.089Z,2.92
2022-07-29T10:42:58.015Z,2.30
2022-07-29T10:45:30.444Z,2.85
2022-07-29T10:48:08.533Z,2.50
2022-07-29T10:50:57.890Z,2.30
2022-07-29T10:53:27.523Z,2.30
2022-07-29T10:56:06.523Z,2.20
2022-07-29T10:58:35.916Z,2.50
2022-07-29T11:01:37.054Z,2.70
2022-07-29T11:04:08.182Z,2.60
2022-07-29T11:10:15.399Z,2.70
2022-07-29T11:12:46.938Z,2.60
2022-07-29T11:15:24.939Z,2.37
2022-07-29T11:17:59.400Z,3.05
2022-07-29T11:20:50.944Z,2.53
2022-07-29T11:23:34.825Z,3.00
2022-07-29T11:26:23.105Z,2.53
2022-07-29T11:29:06.980Z,2.47
2022-07-29T11:31:52.488Z,2.25
2022-07-29T11:34:29.721Z,2.55
2022-07-29T11:37:10.965Z,2.17
2022-07-29T11:39:47.698Z,2.50
2022-07-29T11:42:34.331Z,2.77
2022-07-29T11:50:53.514Z,2.08
2022-07-29T11:53:22.904Z,2.65
2022-07-29T11:55:58.638Z,2.77
2022-07-29T11:58:28.115Z,2.38
2022-07-29T12:00:57.456Z,2.53
2022-07-29T12:03:33.254Z,2.75
2022-07-29T12:06:07.927Z,3.17
2022-07-29T12:07:02.021Z,2.25
2022-07-29T12:08:44.495Z,2.53
2022-07-29T12:11:22.959Z,2.83
2022-07-29T12:13:54.693Z,2.67
2022-07-29T12:16:26.068Z,2.50
2022-07-29T12:19:03.986Z,2.55
2022-07-29T12:21:56.435Z,3.53
2022-07-29T12:24:27.419Z,2.42
2022-07-29T12:26:57.516Z,2.50
2022-07-29T12:29:34.879Z,2.60
2022-07-29T12:32:14.346Z,2.33
2022-07-29T12:34:48.626Z,2.53
2022-07-29T12:37:18.024Z,2.45
2022-07-29T12:39:47.378Z,2.33
2022-07-29T12:42:19.319Z,2.42
2022-07-29T12:44:54.463Z,2.15
2022-07-29T12:47:24.330Z,2.20
2022-07-29T12:49:54.481Z,2.75
2022-07-29T12:52:33.858Z,2.58
2022-07-29T12:55:03.520Z,2.63
2022-07-29T12:57:33.224Z,2.03
2022-07-29T13:00:12.051Z,2.37
2022-07-29T13:02:42.692Z,2.47
2022-07-29T13:05:13.799Z,2.60
2022-07-29T13:07:55.192Z,3.30
2022-07-29T13:10:27.051Z,2.70
2022-07-29T13:13:17.069Z,2.40
2022-07-29T13:15:48.781Z,2.38
2022-07-29T13:18:34.651Z,2.40
2022-07-29T13:21:18.919Z,2.83
2022-07-29T13:23:48.427Z,2.50
2022-07-29T13:26:20.691Z,2.40
2022-07-29T13:28:49.958Z,2.03
2022-07-29T13:31:19.312Z,2.40
2022-07-29T13:33:49.026Z,2.40
2022-07-29T13:36:18.619Z,2.47
2022-07-29T13:38:47.847Z,3.10
2022-07-29T13:41:19.906Z,2.10
2022-07-29T13:43:50.119Z,2.38
2022-07-29T13:46:19.558Z,2.22
2022-07-29T13:48:48.863Z,2.35
2022-07-29T13:51:18.360Z,2.00
2022-07-29T13:53:47.583Z,1.83
2022-07-29T13:56:16.953Z,2.55
2022-07-29T13:58:46.158Z,2.40
2022-07-29T14:01:15.391Z,2.55
2022-07-29T14:03:45.754Z,2.77
2022-07-29T14:06:15.203Z,2.55
2022-07-29T14:08:44.847Z,2.30
2022-07-29T14:11:14.070Z,2.60
2022-07-29T14:13:43.518Z,3.03
2022-07-29T14:16:12.796Z,2.90
2022-07-29T14:18:42.021Z,2.38
2022-07-29T14:21:11.327Z,2.53
2022-07-29T14:23:42.440Z,2.78
2022-07-29T14:26:15.878Z,2.70
2022-07-29T14:28:50.853Z,2.40
2022-07-29T14:31:20.146Z,2.40
2022-07-29T14:33:49.493Z,2.50
2022-07-29T14:36:18.789Z,2.63
2022-07-29T14:38:47.972Z,2.55
2022-07-29T14:41:17.219Z,2.40
2022-07-29T14:43:46.444Z,2.42
2022-07-29T14:46:16.031Z,3.40
2022-07-29T14:48:45.339Z,4.30
2022-07-29T14:51:14.584Z,3.80
2022-07-29T14:53:44.379Z,3.37
2022-07-29T14:56:35.599Z,2.83
2022-07-29T14:59:03.137Z,2.78
2022-07-29T15:01:33.169Z,2.60
2022-07-29T15:04:02.473Z,2.75
2022-07-29T15:06:31.877Z,2.93
2022-07-29T15:09:01.093Z,3.63
2022-07-29T15:11:30.308Z,3.28
2022-07-29T15:14:06.918Z,3.83
2022-07-29T15:16:36.613Z,3.80
2022-07-29T15:19:06.344Z,3.77
2022-07-29T15:21:35.825Z,3.55
2022-07-29T15:24:11.065Z,3.47
2022-07-29T15:26:40.340Z,3.60
2022-07-29T15:29:09.569Z,3.60
2022-07-29T15:31:39.133Z,3.70
2022-07-29T15:34:08.658Z,3.53
2022-07-29T15:36:53.894Z,3.22
2022-07-29T15:39:24.689Z,3.00
2022-07-29T15:41:54.143Z,3.00
2022-07-29T15:44:23.774Z,3.50
2022-07-29T15:47:08.347Z,3.50
2022-07-29T15:49:46.322Z,3.40
2022-07-29T15:52:18.424Z,2.80
2022-07-29T15:54:48.346Z,2.80
2022-07-29T15:57:17.733Z,3.10
2022-07-29T15:59:47.222Z,2.80
2022-07-29T16:02:16.455Z,3.33
2022-07-29T16:04:45.678Z,3.00
2022-07-29T16:07:15.093Z,2.63
2022-07-29T16:09:49.244Z,2.50
2022-07-29T16:12:20.192Z,2.88
2022-07-29T16:14:49.686Z,2.63
2022-07-29T16:17:19.048Z,2.35
2022-07-29T16:19:48.792Z,2.97
2022-07-29T16:22:18.012Z,3.23
2022-07-29T16:24:47.270Z,2.40
2022-07-29T16:27:16.479Z,2.53
2022-07-29T16:29:46.923Z,2.60
2022-07-29T16:32:16.169Z,2.40
2022-07-29T16:34:51.682Z,2.20
2022-07-29T16:37:20.943Z,2.67
2022-07-29T16:39:50.186Z,2.33
2022-07-29T16:42:36.896Z,2.67
2022-07-29T16:45:09.139Z,2.58
2022-07-29T16:47:38.799Z,1.87
2022-07-29T16:50:08.893Z,2.45
2022-07-29T16:52:38.497Z,2.35
2022-07-29T16:55:08.217Z,2.03
2022-07-29T16:57:37.461Z,2.38
2022-07-29T17:00:08.737Z,1.90
2022-07-29T17:02:38.842Z,2.28
2022-07-29T17:05:10.643Z,2.60
2022-07-29T17:07:39.894Z,2.90
2022-07-29T17:10:10.778Z,3.17
2022-07-29T17:12:41.065Z,2.70
2022-07-29T17:15:12.857Z,2.90
2022-07-29T17:17:54.863Z,2.40
2022-07-29T17:20:26.619Z,2.83
2022-07-29T17:22:56.068Z,2.92
2022-07-29T17:25:25.668Z,3.10
2022-07-29T17:28:00.488Z,3.20
2022-07-29T17:30:30.224Z,3.08
2022-07-29T17:32:59.491Z,3.70
2022-07-29T17:35:41.351Z,2.90
2022-07-29T17:38:10.626Z,2.80
2022-07-29T17:40:39.935Z,3.15
2022-07-29T17:43:09.398Z,3.03
2022-07-29T17:45:50.083Z,3.05
2022-07-29T17:48:21.226Z,3.10
2022-07-29T17:50:51.078Z,3.40
2022-07-29T17:53:20.402Z,2.72
2022-07-29T17:55:50.234Z,2.63
2022-07-29T17:58:19.578Z,3.10
2022-07-29T18:00:48.834Z,2.55
2022-07-29T18:03:18.229Z,2.77
2022-07-29T18:05:47.906Z,4.53
2022-07-29T18:08:17.164Z,2.97
2022-07-29T18:10:47.470Z,2.67
2022-07-29T18:13:16.815Z,2.70
2022-07-29T18:15:47.891Z,3.10
2022-07-29T18:18:18.471Z,3.00
2022-07-29T18:20:48.636Z,3.28
2022-07-29T18:23:17.988Z,2.90
2022-07-29T18:25:47.278Z,2.70
2022-07-29T18:28:16.522Z,2.10
2022-07-29T18:30:46.598Z,2.60
2022-07-29T18:33:22.098Z,2.85
2022-07-29T18:36:07.688Z,2.28
2022-07-29T18:38:40.549Z,2.63
2022-07-29T18:41:10.129Z,2.53
2022-07-29T18:43:39.382Z,2.63
2022-07-29T18:46:08.675Z,2.35
2022-07-29T18:48:38.081Z,2.70
2022-07-29T18:51:09.236Z,3.00
2022-07-29T18:53:39.069Z,3.30
2022-07-29T18:56:08.340Z,2.80
2022-07-29T18:58:38.916Z,2.80
2022-07-29T19:01:10.587Z,3.00
2022-07-29T19:03:41.634Z,3.40
2022-07-29T19:06:11.007Z,3.53
2022-07-29T19:08:40.256Z,3.83
2022-07-29T19:11:09.484Z,2.97
2022-07-29T19:13:39.044Z,3.58
2022-07-29T19:16:12.077Z,2.65
2022-07-29T19:18:41.531Z,3.03
2022-07-29T19:21:10.801Z,2.70
2022-07-29T19:24:02.451Z,2.92
2022-07-29T19:26:29.272Z,2.80
2022-07-29T19:28:58.507Z,2.95
2022-07-29T19:31:27.860Z,3.20
2022-07-29T19:33:57.208Z,7.38
2022-07-29T19:36:27.362Z,3.63
2022-07-29T19:38:56.597Z,3.47
2022-07-29T19:41:25.893Z,3.33
2022-07-29T19:43:55.367Z,3.53
2022-07-29T19:46:25.062Z,3.70
2022-07-29T19:48:54.764Z,3.67
2022-07-29T19:51:25.132Z,3.80
2022-07-29T19:53:54.455Z,4.25
2022-07-29T19:56:26.702Z,4.00
2022-07-29T19:58:57.652Z,4.82
2022-07-29T20:01:27.403Z,3.83
2022-07-29T20:03:56.708Z,3.50
2022-07-29T20:06:27.185Z,4.22
2022-07-29T20:08:58.711Z,3.37
2022-07-29T20:11:29.823Z,3.70
2022-07-29T20:13:59.153Z,3.78
2022-07-29T20:16:28.481Z,6.10
2022-07-29T20:18:57.758Z,3.50
2022-07-29T20:21:27.371Z,3.77
2022-07-29T20:24:00.507Z,3.67
2022-07-29T20:26:29.812Z,4.20
2022-07-29T20:28:59.447Z,4.03
2022-07-29T20:31:30.636Z,3.75
2022-07-29T20:34:00.055Z,3.60
2022-07-29T20:36:29.384Z,4.07
2022-07-29T20:38:59.999Z,4.10
2022-07-29T20:41:29.364Z,4.90
2022-07-29T20:43:58.810Z,4.10
2022-07-29T20:46:28.191Z,4.20
2022-07-29T20:48:57.606Z,3.90
2022-07-29T20:51:27.214Z,3.85
2022-07-29T20:53:56.521Z,4.30
2022-07-29T20:56:25.834Z,4.43
2022-07-29T20:58:55.281Z,4.50
2022-07-29T21:01:24.557Z,4.57
2022-07-29T21:03:53.846Z,4.80
2022-07-29T21:06:23.061Z,4.22
2022-07-29T21:08:52.342Z,3.83
2022-07-29T21:11:43.162Z,4.17
2022-07-29T21:14:17.768Z,3.90
2022-07-29T21:16:47.052Z,4.45
2022-07-29T21:19:16.301Z,3.97
2022-07-29T21:21:45.547Z,4.43
2022-07-29T21:24:14.777Z,3.80
2022-07-29T21:26:50.645Z,3.70
2022-07-29T21:29:26.201Z,4.20
2022-07-29T21:31:55.468Z,4.05
2022-07-29T21:34:24.712Z,4.13
2022-07-29T21:36:54.052Z,4.20
2022-07-29T21:39:23.439Z,4.07
2022-07-29T21:41:52.736Z,4.40
2022-07-29T21:44:22.187Z,4.28
2022-07-29T21:46:52.038Z,4.30
2022-07-29T21:49:21.335Z,4.10
2022-07-29T21:51:50.605Z,4.32
2022-07-29T21:54:20.129Z,4.20
2022-07-29T21:56:51.442Z,4.00
2022-07-29T21:59:20.901Z,4.07
2022-07-29T22:01:50.157Z,4.47
2022-07-29T22:04:19.444Z,4.90
2022-07-29T22:06:48.744Z,4.53
2022-07-29T22:09:17.988Z,4.35
2022-07-29T22:11:47.960Z,4.40
2022-07-29T22:14:18.587Z,4.47
2022-07-29T22:16:48.772Z,3.92
2022-07-29T22:19:18.329Z,4.15
2022-07-29T22:21:47.562Z,3.53
2022-07-29T22:24:16.788Z,3.83
2022-07-29T22:26:46.028Z,4.07
2022-07-29T22:29:17.686Z,3.85
2022-07-29T22:31:47.242Z,3.83
2022-07-29T22:34:16.541Z,3.90
2022-07-29T22:36:45.778Z,3.83
2022-07-29T22:39:15.629Z,3.60
2022-07-29T22:41:45.495Z,3.50
2022-07-29T22:44:14.715Z,3.78
2022-07-29T22:46:43.991Z,3.65
2022-07-29T22:49:13.326Z,3.88
2022-07-29T22:51:42.591Z,3.83
2022-07-29T22:54:11.939Z,3.83
2022-07-29T22:56:41.293Z,4.03
2022-07-29T22:59:10.776Z,3.70
2022-07-29T23:01:40.025Z,3.72
2022-07-29T23:04:09.774Z,3.67
2022-07-29T23:06:39.143Z,4.00
2022-07-29T23:09:08.436Z,4.57
2022-07-29T23:11:37.856Z,4.45
2022-07-29T23:14:07.154Z,4.15
2022-07-29T23:16:38.988Z,4.10
2022-07-29T23:19:08.706Z,3.70
2022-07-29T23:21:38.060Z,3.97
2022-07-29T23:24:07.454Z,4.00
2022-07-29T23:26:36.955Z,4.28
2022-07-29T23:29:06.372Z,3.43
2022-07-29T23:31:36.034Z,3.08
2022-07-29T23:34:11.334Z,4.38
2022-07-29T23:36:42.323Z,3.47
2022-07-29T23:39:13.343Z,3.25
2022-07-29T23:41:42.862Z,3.47
2022-07-29T23:44:12.077Z,3.85
2022-07-29T23:46:41.400Z,3.95
2022-07-29T23:49:10.726Z,3.95
2022-07-29T23:51:39.993Z,3.35
2022-07-29T23:54:09.224Z,3.87
2022-07-29T23:56:38.524Z,3.90
2022-07-29T23:59:07.766Z,4.15
